createdAt,value
2017-08-06T00:00:05.270Z,69.50
2017-08-06T00:02:32.882Z,69.50
2017-08-06T00:05:00.425Z,69.50
2017-08-06T00:07:27.996Z,70.20
2017-08-06T00:09:55.566Z,71.00
2017-08-06T00:12:23.101Z,71.30
2017-08-06T00:14:50.641Z,71.10
2017-08-06T00:17:18.206Z,71.10
2017-08-06T00:19:45.745Z,70.40
2017-08-06T00:22:13.289Z,70.30
2017-08-06T00:24:40.904Z,70.50
2017-08-06T00:27:08.436Z,70.50
2017-08-06T00:29:35.968Z,71.70
2017-08-06T00:32:03.528Z,71.80
2017-08-06T00:34:31.841Z,72.60
2017-08-06T00:36:59.384Z,73.10
2017-08-06T00:39:26.998Z,72.20
2017-08-06T00:41:54.548Z,73.00
2017-08-06T00:44:22.085Z,71.90
2017-08-06T00:46:50.189Z,71.90
2017-08-06T00:49:17.720Z,71.20
2017-08-06T00:51:45.261Z,70.00
2017-08-06T00:54:12.841Z,70.70
2017-08-06T00:56:40.384Z,70.10
2017-08-06T00:59:07.924Z,70.70
2017-08-06T01:01:35.497Z,70.00
2017-08-06T01:04:03.040Z,68.70
2017-08-06T01:06:30.589Z,68.10
2017-08-06T01:08:58.201Z,68.20
2017-08-06T01:11:25.741Z,69.00
2017-08-06T01:13:53.277Z,68.50
2017-08-06T01:16:20.857Z,69.60
2017-08-06T01:18:48.401Z,70.20
2017-08-06T01:21:15.945Z,69.70
2017-08-06T01:23:43.528Z,70.40
2017-08-06T01:26:11.073Z,71.00
2017-08-06T01:28:38.618Z,70.90
2017-08-06T01:31:06.257Z,71.70
2017-08-06T01:33:33.796Z,71.50
2017-08-06T01:36:01.332Z,72.40
2017-08-06T01:38:28.896Z,72.00
2017-08-06T01:40:56.437Z,72.90
2017-08-06T01:43:23.980Z,73.10
2017-08-06T01:45:51.584Z,73.50
2017-08-06T01:48:19.465Z,74.10
2017-08-06T01:50:47.010Z,74.90
2017-08-06T01:53:14.624Z,74.50
2017-08-06T01:55:42.165Z,72.90
2017-08-06T01:58:09.700Z,73.20
2017-08-06T02:00:37.268Z,73.40
2017-08-06T02:03:05.025Z,74.10
2017-08-06T02:05:32.573Z,73.80
2017-08-06T02:08:00.139Z,75.40
2017-08-06T02:10:27.688Z,74.60
2017-08-06T02:12:55.220Z,75.00
2017-08-06T02:15:22.824Z,74.90
2017-08-06T02:17:50.365Z,75.10
2017-08-06T02:20:17.906Z,74.70
2017-08-06T02:22:45.468Z,73.90
2017-08-06T02:25:13.013Z,72.60
2017-08-06T02:27:41.326Z,72.50
2017-08-06T02:30:08.904Z,72.50
2017-08-06T02:32:36.444Z,72.30
2017-08-06T02:35:04.253Z,71.60
2017-08-06T02:37:31.872Z,70.90
2017-08-06T02:39:59.413Z,71.70
2017-08-06T02:42:26.949Z,72.00
2017-08-06T02:44:54.510Z,73.20
2017-08-06T02:47:22.053Z,73.20
2017-08-06T02:49:49.809Z,72.60
2017-08-06T02:52:17.412Z,72.30
2017-08-06T02:54:44.945Z,71.40
2017-08-06T02:57:12.486Z,71.10
2017-08-06T02:59:40.565Z,71.30
2017-08-06T03:02:08.099Z,71.50
2017-08-06T03:04:35.645Z,71.30
2017-08-06T03:07:03.218Z,71.20
2017-08-06T03:09:30.769Z,71.10
2017-08-06T03:11:58.309Z,71.10
2017-08-06T03:14:25.873Z,71.00
2017-08-06T03:16:53.412Z,71.60
2017-08-06T03:19:20.953Z,71.30
2017-08-06T03:21:48.576Z,71.60
2017-08-06T03:24:16.108Z,70.90
2017-08-06T03:26:43.645Z,71.80
2017-08-06T03:29:11.216Z,71.90
2017-08-06T03:31:39.517Z,72.00
2017-08-06T03:34:07.052Z,71.40
2017-08-06T03:36:35.389Z,71.70
2017-08-06T03:39:02.931Z,71.00
2017-08-06T03:41:30.477Z,71.00
2017-08-06T03:43:58.158Z,70.70
2017-08-06T03:46:25.698Z,70.50
2017-08-06T03:48:53.233Z,71.40
2017-08-06T03:51:21.348Z,71.20
2017-08-06T03:53:48.889Z,69.80
2017-08-06T03:56:16.428Z,70.20
2017-08-06T03:58:44.033Z,70.80
2017-08-06T04:01:11.569Z,70.70
2017-08-06T04:03:39.113Z,70.10
2017-08-06T04:06:06.720Z,70.20
2017-08-06T04:08:34.286Z,69.90
2017-08-06T04:11:01.816Z,68.50
2017-08-06T04:13:29.379Z,69.50
2017-08-06T04:15:56.912Z,69.90
2017-08-06T04:18:25.217Z,70.50
2017-08-06T04:20:52.785Z,70.30
2017-08-06T04:23:20.389Z,70.80
2017-08-06T04:25:47.937Z,70.90
2017-08-06T04:28:15.733Z,70.70
2017-08-06T04:30:44.041Z,70.80
2017-08-06T04:33:11.585Z,70.80
2017-08-06T04:35:39.168Z,70.40
2017-08-06T04:38:06.730Z,70.40
2017-08-06T04:40:34.288Z,70.70
2017-08-06T04:43:01.934Z,70.60
2017-08-06T04:45:29.545Z,70.00
2017-08-06T04:47:57.137Z,70.70
2017-08-06T04:50:25.204Z,71.20
2017-08-06T04:52:53.000Z,70.40
2017-08-06T04:55:20.540Z,70.40
2017-08-06T04:57:48.101Z,69.80
2017-08-06T05:00:15.776Z,70.20
2017-08-06T05:02:43.342Z,69.90
2017-08-06T05:05:11.010Z,70.50
2017-08-06T05:07:38.561Z,70.10
2017-08-06T05:10:06.236Z,69.30
2017-08-06T05:12:33.841Z,69.80
2017-08-06T05:15:01.408Z,68.70
2017-08-06T05:17:29.022Z,68.20
2017-08-06T05:19:56.642Z,69.40
2017-08-06T05:22:24.244Z,69.30
2017-08-06T05:24:51.818Z,68.50
2017-08-06T05:27:19.407Z,68.40
2017-08-06T05:29:46.973Z,69.10
2017-08-06T05:32:14.526Z,68.30
2017-08-06T05:34:42.135Z,68.10
2017-08-06T05:37:09.672Z,66.70
2017-08-06T05:39:37.217Z,66.10
2017-08-06T05:42:05.646Z,64.50
2017-08-06T05:44:33.193Z,64.50
2017-08-06T05:47:00.745Z,63.70
2017-08-06T05:49:28.389Z,64.10
2017-08-06T05:51:55.949Z,62.90
2017-08-06T05:54:24.020Z,62.90
2017-08-06T05:56:51.741Z,62.50
2017-08-06T05:59:19.296Z,60.60
2017-08-06T06:01:46.908Z,61.20
2017-08-06T06:04:14.517Z,61.90
2017-08-06T06:06:42.917Z,61.10
2017-08-06T06:09:10.462Z,61.00
2017-08-06T06:11:38.072Z,60.80
2017-08-06T06:14:05.627Z,61.20
2017-08-06T06:16:33.181Z,61.30
2017-08-06T06:19:01.084Z,60.60
2017-08-06T06:21:28.653Z,61.50
2017-08-06T06:23:56.325Z,61.30
2017-08-06T06:26:23.979Z,61.10
2017-08-06T06:28:51.629Z,61.10
2017-08-06T06:31:19.169Z,61.80
2017-08-06T06:33:46.773Z,61.10
2017-08-06T06:36:15.101Z,60.70
2017-08-06T06:38:42.645Z,60.10
2017-08-06T06:41:10.284Z,60.20
2017-08-06T06:43:37.846Z,59.40
2017-08-06T06:46:05.409Z,59.20
2017-08-06T06:48:33.109Z,59.30
2017-08-06T06:51:00.694Z,57.30
2017-08-06T06:53:28.251Z,56.30
2017-08-06T06:55:55.933Z,56.10
2017-08-06T06:58:23.477Z,54.40
2017-08-06T07:00:51.033Z,52.00
2017-08-06T07:03:18.648Z,52.00
2017-08-06T07:05:48.729Z,51.80
2017-08-06T07:08:16.387Z,48.90
2017-08-06T07:10:44.977Z,42.70
2017-08-06T07:13:13.076Z,42.70
2017-08-06T07:15:40.825Z,41.40
2017-08-06T07:18:08.566Z,44.10
2017-08-06T07:20:36.520Z,43.50
2017-08-06T07:23:04.142Z,42.70
2017-08-06T07:25:31.854Z,43.30
2017-08-06T07:27:59.415Z,43.20
2017-08-06T07:30:27.201Z,43.40
2017-08-06T07:33:00.376Z,46.70
2017-08-06T07:35:28.905Z,46.90
2017-08-06T07:37:57.142Z,47.20
2017-08-06T07:40:24.763Z,47.60
2017-08-06T07:42:53.432Z,46.40
2017-08-06T07:45:21.040Z,47.30
2017-08-06T07:47:48.647Z,46.70
2017-08-06T07:50:16.208Z,48.20
2017-08-06T07:52:43.741Z,47.20
2017-08-06T07:55:11.304Z,47.20
2017-08-06T07:57:39.669Z,51.30
2017-08-06T08:00:07.200Z,51.30
2017-08-06T08:02:34.768Z,51.70
2017-08-06T08:05:02.307Z,52.00
2017-08-06T08:07:29.857Z,51.60
2017-08-06T08:09:57.457Z,51.10
2017-08-06T08:12:25.000Z,52.30
2017-08-06T08:14:52.555Z,51.50
2017-08-06T08:17:25.952Z,52.10
2017-08-06T08:19:53.485Z,52.80
2017-08-06T08:22:21.105Z,53.60
2017-08-06T08:24:48.849Z,53.10
2017-08-06T08:27:16.453Z,53.80
2017-08-06T08:29:44.073Z,54.40
2017-08-06T08:32:11.693Z,55.00
2017-08-06T08:34:40.725Z,55.00
2017-08-06T08:37:08.699Z,55.20
2017-08-06T08:39:36.274Z,54.20
2017-08-06T08:42:03.808Z,52.80
2017-08-06T08:44:31.593Z,51.90
2017-08-06T08:46:59.161Z,48.50
2017-08-06T08:49:27.054Z,48.40
2017-08-06T08:51:55.401Z,47.00
2017-08-06T08:54:23.011Z,46.90
2017-08-06T08:56:50.576Z,47.70
2017-08-06T08:59:18.478Z,47.50
2017-08-06T09:01:46.138Z,47.10
2017-08-06T09:04:13.747Z,46.20
2017-08-06T09:06:41.289Z,48.30
2017-08-06T09:09:08.868Z,49.50
2017-08-06T09:11:37.181Z,49.00
2017-08-06T09:14:04.724Z,49.00
2017-08-06T09:16:32.321Z,49.90
2017-08-06T09:18:59.857Z,51.10
2017-08-06T09:21:27.413Z,50.90
2017-08-06T09:23:54.972Z,51.20
2017-08-06T09:26:22.513Z,53.60
2017-08-06T09:28:50.057Z,51.70
2017-08-06T09:31:18.437Z,52.50
2017-08-06T09:33:46.744Z,52.90
2017-08-06T09:36:14.279Z,52.90
2017-08-06T09:38:42.784Z,52.00
2017-08-06T09:41:10.317Z,52.00
2017-08-06T09:43:37.855Z,50.00
2017-08-06T09:46:05.429Z,49.80
2017-08-06T09:48:32.973Z,47.50
2017-08-06T09:51:00.504Z,51.20
2017-08-06T09:53:28.098Z,46.90
2017-08-06T09:55:55.644Z,50.00
2017-08-06T09:58:23.185Z,44.80
2017-08-06T10:00:51.456Z,44.40
2017-08-06T10:03:19.000Z,44.30
2017-08-06T10:05:46.531Z,43.70
2017-08-06T10:08:14.873Z,43.80
2017-08-06T10:10:42.413Z,43.70
2017-08-06T10:13:10.009Z,42.30
2017-08-06T10:15:37.581Z,43.20
2017-08-06T10:18:05.922Z,42.90
2017-08-06T10:20:33.484Z,42.90
2017-08-06T10:23:01.729Z,44.10
2017-08-06T10:25:30.757Z,46.20
2017-08-06T10:27:59.207Z,46.50
2017-08-06T10:30:26.802Z,46.80
2017-08-06T10:32:54.412Z,46.90
2017-08-06T10:35:22.003Z,47.20
2017-08-06T10:37:49.638Z,46.80
2017-08-06T10:40:17.898Z,46.80
2017-08-06T10:42:45.477Z,46.90
2017-08-06T10:45:14.894Z,48.40
2017-08-06T10:47:42.495Z,46.70
2017-08-06T10:50:10.087Z,48.80
2017-08-06T10:52:37.716Z,48.80
2017-08-06T10:55:06.209Z,48.50
2017-08-06T10:57:34.509Z,48.30
2017-08-06T11:00:02.865Z,50.30
2017-08-06T11:02:30.454Z,50.30
2017-08-06T11:04:58.021Z,52.30
2017-08-06T11:07:25.674Z,52.50
2017-08-06T11:09:53.238Z,53.20
2017-08-06T11:12:21.056Z,53.20
2017-08-06T11:14:48.653Z,51.40
2017-08-06T11:17:16.213Z,51.70
2017-08-06T11:19:43.792Z,52.00
2017-08-06T11:22:11.431Z,51.90
2017-08-06T11:24:38.998Z,49.80
2017-08-06T11:27:06.599Z,51.30
2017-08-06T11:29:34.253Z,52.10
2017-08-06T11:32:01.827Z,51.20
2017-08-06T11:34:29.410Z,51.90
2017-08-06T11:36:56.995Z,52.90
2017-08-06T11:39:24.570Z,52.50
2017-08-06T11:41:52.164Z,52.00
2017-08-06T11:44:19.774Z,52.40
2017-08-06T11:46:47.532Z,52.30
2017-08-06T11:49:15.092Z,52.00
2017-08-06T11:51:42.713Z,52.60
2017-08-06T11:54:10.323Z,52.60
2017-08-06T11:56:38.662Z,52.90
2017-08-06T11:59:06.248Z,52.80
2017-08-06T12:01:33.815Z,53.80
2017-08-06T12:04:01.981Z,54.30
2017-08-06T12:06:29.629Z,55.00
2017-08-06T12:08:57.194Z,53.80
2017-08-06T12:11:24.765Z,54.90
2017-08-06T12:13:52.498Z,55.70
2017-08-06T12:16:20.104Z,59.30
2017-08-06T12:18:47.742Z,60.80
2017-08-06T12:21:15.349Z,60.80
2017-08-06T12:23:42.922Z,60.80
2017-08-06T12:26:10.513Z,62.30
2017-08-06T12:28:38.173Z,62.90
2017-08-06T12:31:05.737Z,63.10
2017-08-06T12:33:33.318Z,63.70
2017-08-06T12:36:01.717Z,65.40
2017-08-06T12:38:30.102Z,63.20
2017-08-06T12:40:57.685Z,63.10
2017-08-06T12:43:25.345Z,65.60
2017-08-06T12:45:52.925Z,66.50
2017-08-06T12:48:20.659Z,66.50
2017-08-06T12:50:48.318Z,67.30
2017-08-06T12:53:15.870Z,68.50
2017-08-06T12:55:43.437Z,68.10
2017-08-06T12:58:11.053Z,66.40
2017-08-06T13:00:38.611Z,67.00
2017-08-06T13:03:06.188Z,67.50
2017-08-06T13:05:34.082Z,67.60
2017-08-06T13:08:01.634Z,69.30
2017-08-06T13:10:29.181Z,68.80
2017-08-06T13:12:57.714Z,69.70
2017-08-06T13:15:25.258Z,69.40
2017-08-06T13:17:52.806Z,69.30
2017-08-06T13:20:20.453Z,69.00
2017-08-06T13:22:47.992Z,71.20
2017-08-06T13:25:15.525Z,70.40
2017-08-06T13:27:43.089Z,70.70
2017-08-06T13:30:10.629Z,70.50
2017-08-06T13:32:38.168Z,69.80
2017-08-06T13:35:05.747Z,69.40
2017-08-06T13:37:33.289Z,71.00
2017-08-06T13:40:00.833Z,70.70
2017-08-06T13:42:29.221Z,71.20
2017-08-06T13:44:56.765Z,71.10
2017-08-06T13:47:24.314Z,72.60
2017-08-06T13:49:51.885Z,72.60
2017-08-06T13:52:19.425Z,71.70
2017-08-06T13:54:46.964Z,71.60
2017-08-06T13:57:14.577Z,72.30
2017-08-06T13:59:42.116Z,71.70
2017-08-06T14:02:09.660Z,70.60
2017-08-06T14:04:37.273Z,72.20
2017-08-06T14:07:04.893Z,72.40
2017-08-06T14:09:32.450Z,72.40
2017-08-06T14:12:00.008Z,70.10
2017-08-06T14:14:27.557Z,71.10
2017-08-06T14:16:55.099Z,71.30
2017-08-06T14:19:22.673Z,71.60
2017-08-06T14:21:50.209Z,71.60
2017-08-06T14:24:17.744Z,70.70
2017-08-06T14:26:45.377Z,70.00
2017-08-06T14:29:12.909Z,69.30
2017-08-06T14:31:40.457Z,69.90
2017-08-06T14:34:08.026Z,69.30
2017-08-06T14:36:35.575Z,70.80
2017-08-06T14:39:03.251Z,71.20
2017-08-06T14:41:30.812Z,70.80
2017-08-06T14:43:58.354Z,69.00
2017-08-06T14:46:25.897Z,69.30
2017-08-06T14:48:53.552Z,69.30
2017-08-06T14:51:21.095Z,68.50
2017-08-06T14:53:49.396Z,70.60
2017-08-06T14:56:16.957Z,70.50
2017-08-06T14:58:44.492Z,69.80
2017-08-06T15:01:12.065Z,69.00
2017-08-06T15:03:39.661Z,70.40
2017-08-06T15:06:07.207Z,69.20
2017-08-06T15:08:35.108Z,69.80
2017-08-06T15:11:02.724Z,69.40
2017-08-06T15:13:30.269Z,70.60
2017-08-06T15:15:57.808Z,70.40
2017-08-06T15:18:26.149Z,72.80
2017-08-06T15:20:53.693Z,72.00
2017-08-06T15:23:21.241Z,72.40
2017-08-06T15:25:48.811Z,73.30
2017-08-06T15:28:16.366Z,73.10
2017-08-06T15:30:43.905Z,74.00
2017-08-06T15:33:11.509Z,73.40
2017-08-06T15:35:39.053Z,73.90
2017-08-06T15:38:06.588Z,72.50
2017-08-06T15:40:34.160Z,72.00
2017-08-06T15:43:01.701Z,72.50
2017-08-06T15:45:29.245Z,71.40
2017-08-06T15:47:56.812Z,71.80
2017-08-06T15:50:24.360Z,71.70
2017-08-06T15:52:51.902Z,72.10
2017-08-06T15:55:19.500Z,71.80
2017-08-06T15:57:47.045Z,71.50
2017-08-06T16:00:15.359Z,70.00
2017-08-06T16:02:42.933Z,69.90
2017-08-06T16:05:10.483Z,70.50
2017-08-06T16:07:38.025Z,71.10
2017-08-06T16:10:05.854Z,71.40
2017-08-06T16:12:33.396Z,72.50
2017-08-06T16:15:00.936Z,71.90
2017-08-06T16:17:28.544Z,71.10
2017-08-06T16:19:56.843Z,71.80
2017-08-06T16:22:24.381Z,71.80
2017-08-06T16:24:51.952Z,70.90
2017-08-06T16:27:19.512Z,70.80
2017-08-06T16:29:47.052Z,69.90
2017-08-06T16:32:14.632Z,70.00
2017-08-06T16:34:42.176Z,69.00
2017-08-06T16:37:09.714Z,68.70
2017-08-06T16:39:37.312Z,69.20
2017-08-06T16:42:04.853Z,68.90
2017-08-06T16:44:32.389Z,68.20
2017-08-06T16:46:59.958Z,67.80
2017-08-06T16:49:27.492Z,67.80
2017-08-06T16:51:55.035Z,68.00
2017-08-06T16:54:22.596Z,68.60
2017-08-06T16:56:50.128Z,67.60
2017-08-06T16:59:17.665Z,68.30
2017-08-06T17:01:45.283Z,68.30
2017-08-06T17:04:12.842Z,68.40
2017-08-06T17:06:40.372Z,68.50
2017-08-06T17:09:07.936Z,69.20
2017-08-06T17:11:35.903Z,68.60
2017-08-06T17:14:03.466Z,69.20
2017-08-06T17:16:31.073Z,69.50
2017-08-06T17:18:58.614Z,70.50
2017-08-06T17:21:26.161Z,69.20
2017-08-06T17:23:53.805Z,69.80
2017-08-06T17:26:21.357Z,69.20
2017-08-06T17:28:49.675Z,69.30
2017-08-06T17:31:17.237Z,69.20
2017-08-06T17:33:44.801Z,69.70
2017-08-06T17:36:12.337Z,69.30
2017-08-06T17:38:39.901Z,69.20
2017-08-06T17:41:07.456Z,69.00
2017-08-06T17:43:34.993Z,67.60
2017-08-06T17:46:02.609Z,67.40
2017-08-06T17:48:30.969Z,67.90
2017-08-06T17:50:58.516Z,68.10
2017-08-06T17:53:26.101Z,68.30
2017-08-06T17:55:53.718Z,68.70
2017-08-06T17:58:21.259Z,69.20
2017-08-06T18:00:48.840Z,70.00
2017-08-06T18:03:17.164Z,71.70
2017-08-06T18:05:44.709Z,71.60
2017-08-06T18:08:12.388Z,71.50
2017-08-06T18:10:39.924Z,71.70
2017-08-06T18:13:08.065Z,71.80
2017-08-06T18:15:35.976Z,72.40
2017-08-06T18:18:03.613Z,72.70
2017-08-06T18:20:31.178Z,73.00
2017-08-06T18:22:58.785Z,73.00
2017-08-06T18:25:26.371Z,72.20
2017-08-06T18:27:53.981Z,72.40
2017-08-06T18:30:21.620Z,72.80
2017-08-06T18:32:49.216Z,73.00
2017-08-06T18:35:16.991Z,72.70
2017-08-06T18:37:44.590Z,72.70
2017-08-06T18:40:13.287Z,72.60
2017-08-06T18:42:41.037Z,72.90
2017-08-06T18:45:08.605Z,73.20
2017-08-06T18:47:36.949Z,74.00
2017-08-06T18:50:05.284Z,74.30
2017-08-06T18:52:33.425Z,74.40
2017-08-06T18:55:01.013Z,74.40
2017-08-06T18:57:28.560Z,74.40
2017-08-06T18:59:56.128Z,74.60
2017-08-06T19:02:23.719Z,75.00
2017-08-06T19:04:51.305Z,74.60
2017-08-06T19:07:18.922Z,74.50
2017-08-06T19:09:46.473Z,74.60
2017-08-06T19:12:14.016Z,74.60
2017-08-06T19:14:42.677Z,75.60
2017-08-06T19:17:10.225Z,75.40
2017-08-06T19:19:37.771Z,76.20
2017-08-06T19:22:05.349Z,76.20
2017-08-06T19:24:32.897Z,75.80
2017-08-06T19:27:00.440Z,76.50
2017-08-06T19:29:28.053Z,76.40
2017-08-06T19:31:56.373Z,76.60
2017-08-06T19:34:23.912Z,76.50
2017-08-06T19:36:51.573Z,76.70
2017-08-06T19:39:19.121Z,77.00
2017-08-06T19:41:46.682Z,77.10
2017-08-06T19:44:14.279Z,77.00
2017-08-06T19:46:41.831Z,77.40
2017-08-06T19:49:09.373Z,77.00
2017-08-06T19:51:36.949Z,77.10
2017-08-06T19:54:04.497Z,76.80
2017-08-06T19:56:32.045Z,77.60
2017-08-06T19:58:59.701Z,77.80
2017-08-06T20:01:27.245Z,78.00
2017-08-06T20:03:54.793Z,77.60
2017-08-06T20:06:22.365Z,77.10
2017-08-06T20:08:49.899Z,77.50
2017-08-06T20:11:17.444Z,77.80
2017-08-06T20:13:45.022Z,78.10
2017-08-06T20:16:12.916Z,78.30
2017-08-06T20:18:40.460Z,78.40
2017-08-06T20:21:08.069Z,78.60
2017-08-06T20:23:35.615Z,78.50
2017-08-06T20:26:03.160Z,78.10
2017-08-06T20:28:31.657Z,78.60
2017-08-06T20:30:59.200Z,79.40
2017-08-06T20:33:26.753Z,79.30
2017-08-06T20:35:54.366Z,79.00
2017-08-06T20:38:21.908Z,78.90
2017-08-06T20:40:49.457Z,78.50
2017-08-06T20:43:17.077Z,79.70
2017-08-06T20:45:44.629Z,79.60
2017-08-06T20:48:12.170Z,79.70
2017-08-06T20:50:39.745Z,79.70
2017-08-06T20:53:07.289Z,79.40
2017-08-06T20:55:34.841Z,79.90
2017-08-06T20:58:02.421Z,79.50
2017-08-06T21:00:29.965Z,79.70
2017-08-06T21:02:57.513Z,78.50
2017-08-06T21:05:25.142Z,79.20
2017-08-06T21:07:52.697Z,79.40
2017-08-06T21:10:20.504Z,79.50
2017-08-06T21:12:48.073Z,79.80
2017-08-06T21:15:15.628Z,79.70
2017-08-06T21:17:43.789Z,80.00
2017-08-06T21:20:11.368Z,80.60
2017-08-06T21:22:38.917Z,80.50
2017-08-06T21:25:06.460Z,80.10
2017-08-06T21:27:34.077Z,80.20
2017-08-06T21:30:01.629Z,80.70
2017-08-06T21:32:29.172Z,79.80
2017-08-06T21:34:56.745Z,79.20
2017-08-06T21:37:24.297Z,79.10
2017-08-06T21:39:51.846Z,80.30
2017-08-06T21:42:19.456Z,80.20
2017-08-06T21:44:46.997Z,79.70
2017-08-06T21:47:14.545Z,79.50
2017-08-06T21:49:43.097Z,80.00
2017-08-06T21:52:10.640Z,80.20
2017-08-06T21:54:38.193Z,80.30
2017-08-06T21:57:06.529Z,80.80
2017-08-06T21:59:34.077Z,80.70
2017-08-06T22:02:01.630Z,81.10
2017-08-06T22:04:29.205Z,80.50
2017-08-06T22:06:56.757Z,81.10
2017-08-06T22:09:24.345Z,80.30
2017-08-06T22:11:51.957Z,80.60
2017-08-06T22:14:19.505Z,80.80
2017-08-06T22:16:47.054Z,80.30
2017-08-06T22:19:14.966Z,80.20
2017-08-06T22:21:42.511Z,80.20
2017-08-06T22:24:10.056Z,79.90
2017-08-06T22:26:37.641Z,80.20
2017-08-06T22:29:05.195Z,79.70
2017-08-06T22:31:32.745Z,79.40
2017-08-06T22:34:00.700Z,79.30
2017-08-06T22:36:28.257Z,79.50
2017-08-06T22:38:55.809Z,79.90
2017-08-06T22:41:24.278Z,80.20
2017-08-06T22:43:51.836Z,80.10
2017-08-06T22:46:19.386Z,79.70
2017-08-06T22:48:47.002Z,79.80
2017-08-06T22:51:14.545Z,79.40
2017-08-06T22:53:42.089Z,79.80
2017-08-06T22:56:10.496Z,79.60
2017-08-06T22:58:38.041Z,79.50
2017-08-06T23:01:05.580Z,79.50
2017-08-06T23:03:33.169Z,79.40
2017-08-06T23:06:00.704Z,79.70
2017-08-06T23:08:28.236Z,79.80
2017-08-06T23:10:55.805Z,79.30
2017-08-06T23:13:23.349Z,79.30
2017-08-06T23:15:50.896Z,79.60
2017-08-06T23:18:18.521Z,79.60
2017-08-06T23:20:46.408Z,79.40
2017-08-06T23:23:13.961Z,79.60
2017-08-06T23:25:41.531Z,79.40
2017-08-06T23:28:09.081Z,79.30
2017-08-06T23:30:36.628Z,79.40
2017-08-06T23:33:04.193Z,79.20
2017-08-06T23:35:31.741Z,79.60
2017-08-06T23:37:59.288Z,79.70
2017-08-06T23:40:26.941Z,79.80
2017-08-06T23:42:54.494Z,80.10
2017-08-06T23:45:22.032Z,80.00
2017-08-06T23:47:49.624Z,80.10
2017-08-06T23:50:17.169Z,79.70
2017-08-06T23:52:44.714Z,80.10
2017-08-06T23:55:12.320Z,80.40
2017-08-06T23:57:39.861Z,79.80
